Time;durP1;ratioP1;P1;durP2;ratioP2;P2;SDS_P1;SDS_P2;PMS_P1;PMS_P2;Temp;Humidity;BMP_temperature;BMP_pressure;BME280_temperature;BME280_humidity;BME280_pressure;Samples;Min_cycle;Max_cycle;Signal;HPM_P1;HPM_P2
2023/02/26 00:01:46;;;;;;;2.05;1.02;;;;;;;1.57;100.00;101916.97;2613907;31;20421;-49
2023/02/26 00:04:16;;;;;;;3.17;1.05;;;;;;;1.65;100.00;101901.69;2611342;31;20034;-50
2023/02/26 00:06:51;;;;;;;7.35;1.38;;;;;;;1.59;100.00;101904.56;2613238;36;20038;-51
2023/02/26 00:09:20;;;;;;;4.13;1.13;;;;;;;1.51;100.00;101909.22;2613488;31;20061;-51
2023/02/26 00:11:49;;;;;;;5.47;1.02;;;;;;;1.46;100.00;101919.13;2613671;36;20038;-52
2023/02/26 00:14:18;;;;;;;3.17;0.82;;;;;;;1.48;100.00;101927.91;2615031;36;20541;-52
2023/02/26 00:16:52;;;;;;;5.97;0.95;;;;;;;1.43;100.00;101932.50;2615994;36;20436;-51
2023/02/26 00:19:23;;;;;;;2.90;1.13;;;;;;;1.40;100.00;101929.03;2614533;36;20575;-51
2023/02/26 00:21:52;;;;;;;3.35;1.30;;;;;;;1.33;100.00;101943.41;2615321;36;20038;-50
2023/02/26 00:24:20;;;;;;;5.22;1.13;;;;;;;1.33;100.00;101935.44;2614727;31;20034;-50
2023/02/26 00:26:49;;;;;;;3.15;1.20;;;;;;;1.28;100.00;101945.38;2615025;36;20047;-50
2023/02/26 00:29:18;;;;;;;4.75;1.30;;;;;;;1.28;100.00;101948.00;2614679;36;20026;-51
2023/02/26 00:31:47;;;;;;;6.03;1.13;;;;;;;1.18;100.00;101957.19;2613492;36;20042;-50
2023/02/26 00:34:16;;;;;;;3.67;1.27;;;;;;;1.25;100.00;101956.03;2614200;36;20037;-56
2023/02/26 00:36:52;;;;;;;4.18;1.27;;;;;;;1.23;100.00;101965.84;2614103;36;20030;-55
2023/02/26 00:39:37;;;;;;;5.25;1.20;;;;;;;1.23;100.00;101965.84;2614389;36;20038;-54
2023/02/26 00:42:06;;;;;;;6.63;1.23;;;;;;;1.16;100.00;101975.78;2614675;31;20034;-52
2023/02/26 00:44:35;;;;;;;6.03;1.20;;;;;;;1.23;100.00;101972.00;2613064;36;20562;-57
2023/02/26 00:47:11;;;;;;;2.80;1.00;;;;;;;1.29;100.00;101970.94;2613732;36;20031;-52
2023/02/26 00:49:51;;;;;;;6.65;1.67;;;;;;;1.42;100.00;101974.06;2614167;36;20062;-53
2023/02/26 00:52:30;;;;;;;2.95;1.02;;;;;;;1.29;100.00;101983.34;2614959;31;20045;-51
2023/02/26 00:54:58;;;;;;;4.05;1.77;;;;;;;1.21;100.00;101980.94;2615221;36;20045;-54
2023/02/26 00:57:27;;;;;;;6.28;1.00;;;;;;;1.12;100.00;101982.09;2613665;36;20042;-55
2023/02/26 00:59:55;;;;;;;3.08;1.17;;;;;;;1.12;100.00;101978.56;2614494;36;20042;-56
2023/02/26 01:02:24;;;;;;;9.13;1.10;;;;;;;1.07;100.00;101977.84;2613396;36;20057;-54
2023/02/26 01:04:55;;;;;;;7.35;1.33;;;;;;;1.02;100.00;101972.69;2614641;36;20031;-55
2023/02/26 01:07:28;;;;;;;3.90;1.23;;;;;;;0.85;100.00;101974.06;2614484;36;20760;-57
2023/02/26 01:09:57;;;;;;;5.07;1.63;;;;;;;0.90;100.00;101978.34;2614750;36;20042;-55
2023/02/26 01:12:26;;;;;;;4.78;1.50;;;;;;;0.85;100.00;101971.44;2614468;31;20037;-56
2023/02/26 01:14:55;;;;;;;5.10;1.23;;;;;;;0.84;100.00;101977.63;2614292;36;20042;-52
2023/02/26 01:17:30;;;;;;;3.38;1.25;;;;;;;0.79;100.00;101982.19;2614318;36;20050;-59
2023/02/26 01:20:04;;;;;;;4.88;1.17;;;;;;;0.81;100.00;101987.44;2614487;36;20041;-55
2023/02/26 01:22:41;;;;;;;5.53;1.23;;;;;;;0.76;100.00;101989.38;2615368;36;20054;-52
2023/02/26 01:25:12;;;;;;;4.07;1.17;;;;;;;0.62;100.00;101990.66;2614554;36;20042;-53
2023/02/26 01:27:41;;;;;;;3.65;1.05;;;;;;;0.65;100.00;101985.25;2614067;31;20035;-55
2023/02/26 01:30:11;;;;;;;4.47;0.80;;;;;;;0.56;100.00;101990.81;2614756;36;20115;-55
2023/02/26 01:32:45;;;;;;;2.70;1.20;;;;;;;0.56;100.00;101995.22;2614438;36;20053;-52
2023/02/26 01:35:26;;;;;;;5.50;1.40;;;;;;;0.58;100.00;102001.38;2615258;36;20425;-51
2023/02/26 01:38:03;;;;;;;6.22;1.23;;;;;;;0.63;100.00;102010.03;2614773;36;20055;-53
2023/02/26 01:40:47;;;;;;;7.05;1.33;;;;;;;0.50;100.00;102006.88;2614688;36;20050;-55
2023/02/26 01:43:21;;;;;;;3.78;1.00;;;;;;;0.51;100.00;102012.13;2614014;36;20556;-55
2023/02/26 01:45:59;;;;;;;4.30;1.08;;;;;;;0.51;100.00;102016.56;2614490;36;20030;-59
2023/02/26 01:48:38;;;;;;;5.10;0.90;;;;;;;0.47;100.00;102013.16;2613526;36;20539;-53
2023/02/26 01:51:07;;;;;;;4.38;1.00;;;;;;;0.44;100.00;102015.88;2614720;36;20038;-58
2023/02/26 01:53:38;;;;;;;3.42;1.00;;;;;;;0.43;100.00;102007.97;2614610;36;20562;-57
2023/02/26 01:56:15;;;;;;;3.20;1.10;;;;;;;0.40;100.00;102016.88;2614884;36;20411;-52
2023/02/26 01:58:45;;;;;;;4.03;1.08;;;;;;;0.38;100.00;102020.47;2614279;36;20034;-54
2023/02/26 02:01:14;;;;;;;2.17;0.93;;;;;;;0.43;100.00;102021.22;2614579;36;20041;-57
2023/02/26 02:03:44;;;;;;;5.00;1.23;;;;;;;0.39;100.00;102017.78;2613964;31;20085;-54
2023/02/26 02:06:19;;;;;;;2.92;1.10;;;;;;;0.37;100.00;102024.91;2614694;36;20121;-53
2023/02/26 02:08:50;;;;;;;3.15;1.02;;;;;;;0.26;100.00;102026.97;2613583;36;20038;-54
2023/02/26 02:11:19;;;;;;;1.98;1.10;;;;;;;0.25;100.00;102028.75;2613756;36;20026;-56
2023/02/26 02:14:06;;;;;;;7.50;1.00;;;;;;;0.29;100.00;102038.31;2613638;36;20478;-54
2023/02/26 02:16:42;;;;;;;8.68;1.25;;;;;;;0.32;100.00;102038.28;2614261;31;20057;-53
2023/02/26 02:19:31;;;;;;;6.30;1.13;;;;;;;0.28;100.00;102041.91;2613429;36;20049;-53
2023/02/26 02:22:16;;;;;;;4.50;1.08;;;;;;;0.30;100.00;102047.16;2613872;36;20049;-51
2023/02/26 02:25:03;;;;;;;5.45;1.40;;;;;;;0.26;100.00;102048.16;2614918;31;20617;-51
2023/02/26 02:27:43;;;;;;;4.35;1.08;;;;;;;0.28;100.00;102049.84;2614542;36;20035;-54
2023/02/26 02:30:33;;;;;;;4.50;1.20;;;;;;;0.33;100.00;102062.97;2615077;36;20591;-52
2023/02/26 02:33:07;;;;;;;6.20;0.93;;;;;;;0.31;100.00;102062.13;2615316;36;20419;-58
2023/02/26 02:35:40;;;;;;;4.47;1.00;;;;;;;0.29;100.00;102064.81;2615313;36;20042;-53
2023/02/26 02:38:13;;;;;;;6.35;1.05;;;;;;;0.26;100.00;102059.59;2614799;36;20146;-56
2023/02/26 02:40:45;;;;;;;2.70;1.00;;;;;;;0.27;100.00;102068.44;2615249;36;20030;-58
2023/02/26 02:43:16;;;;;;;5.45;1.13;;;;;;;0.19;100.00;102063.31;2614737;36;20042;-53
2023/02/26 02:45:49;;;;;;;5.30;1.05;;;;;;;0.16;100.00;102061.63;2615306;36;20444;-54
2023/02/26 02:48:27;;;;;;;3.38;1.10;;;;;;;0.11;100.00;102065.31;2614350;36;20045;-55
2023/02/26 02:51:00;;;;;;;2.65;0.82;;;;;;;0.10;100.00;102076.78;2616260;36;20034;-57
2023/02/26 02:53:35;;;;;;;2.70;0.82;;;;;;;0.15;100.00;102082.84;2614004;36;20041;-56
2023/02/26 02:56:09;;;;;;;3.67;0.90;;;;;;;0.17;100.00;102075.72;2615584;31;20038;-56
2023/02/26 02:58:41;;;;;;;8.23;1.13;;;;;;;0.19;100.00;102079.19;2616066;36;20428;-52
2023/02/26 03:01:15;;;;;;;3.63;1.00;;;;;;;0.14;100.00;102083.75;2615694;36;20041;-52
2023/02/26 03:03:53;;;;;;;7.00;1.02;;;;;;;0.03;100.00;102080.50;2614166;36;20050;-51
2023/02/26 03:06:23;;;;;;;5.67;1.03;;;;;;;0.14;100.00;102081.97;2615620;36;20042;-51
2023/02/26 03:08:52;;;;;;;;;;;;;;;0.09;100.00;102088.28;2616193;36;20800;-51
2023/02/26 03:11:20;;;;;;;2.83;1.13;;;;;;;0.08;100.00;102083.91;2615854;36;19947;-55
2023/02/26 03:13:50;;;;;;;8.35;1.85;;;;;;;0.12;100.00;102088.22;2615233;31;20532;-54
2023/02/26 03:16:31;;;;;;;;;;;;;;;0.04;100.00;102093.69;2616497;31;20540;-55
2023/02/26 03:19:10;;;;;;;4.60;1.17;;;;;;;0.00;100.00;102089.41;2615929;36;19947;-52
2023/02/26 03:21:46;;;;;;;6.63;1.35;;;;;;;-0.01;100.00;102100.88;2617271;31;20616;-58
2023/02/26 03:24:23;;;;;;;3.33;1.08;;;;;;;-0.08;100.00;102101.94;2615225;36;20031;-53
2023/02/26 03:26:59;;;;;;;4.38;1.13;;;;;;;-0.07;100.00;102104.56;2616727;36;20034;-54
2023/02/26 03:29:36;;;;;;;4.38;1.30;;;;;;;-0.10;100.00;102104.63;2615214;36;20034;-55
2023/02/26 03:32:09;;;;;;;3.90;1.00;;;;;;;-0.11;100.00;102113.47;2614784;36;20046;-52
2023/02/26 03:34:44;;;;;;;9.77;1.48;;;;;;;-0.15;100.00;102116.22;2614521;36;20077;-51
2023/02/26 03:37:19;;;;;;;2.97;1.08;;;;;;;-0.15;100.00;102118.88;2614499;36;20023;-54
2023/02/26 03:39:52;;;;;;;9.10;1.77;;;;;;;-0.13;100.00;102115.28;2615073;36;20038;-55
2023/02/26 03:42:26;;;;;;;1.98;0.80;;;;;;;-0.25;100.00;102124.38;2615001;36;20038;-56
2023/02/26 03:44:58;;;;;;;5.60;1.52;;;;;;;-0.29;100.00;102125.34;2612989;36;20030;-56
2023/02/26 03:47:28;;;;;;;2.40;0.82;;;;;;;-0.28;100.00;102131.50;2613899;31;20061;-56
2023/02/26 03:50:04;;;;;;;2.33;0.90;;;;;;;-0.31;100.00;102142.16;2613756;36;20045;-53
2023/02/26 03:52:39;;;;;;;3.35;1.10;;;;;;;-0.30;100.00;102141.25;2614504;36;20078;-54
2023/02/26 03:55:14;;;;;;;2.83;0.93;;;;;;;-0.34;100.00;102142.22;2614040;31;20034;-58
2023/02/26 03:57:43;;;;;;;2.80;0.80;;;;;;;-0.46;100.00;102138.94;2614930;36;20030;-54
2023/02/26 04:00:14;;;;;;;2.35;0.80;;;;;;;-0.57;100.00;102141.81;2614025;36;20041;-51
2023/02/26 04:02:50;;;;;;;1.98;0.77;;;;;;;-0.52;100.00;102152.31;2612662;36;20042;-55
2023/02/26 04:05:24;;;;;;;6.38;1.38;;;;;;;-0.49;100.00;102141.66;2613910;36;20042;-54
2023/02/26 04:07:53;;;;;;;3.30;0.93;;;;;;;-0.55;100.00;102150.59;2614749;31;20031;-53
2023/02/26 04:10:26;;;;;;;3.05;1.00;;;;;;;-0.44;100.00;102153.03;2613333;36;20038;-55
2023/02/26 04:12:55;;;;;;;2.25;1.00;;;;;;;-0.53;100.00;102163.78;2615417;36;20540;-51
2023/02/26 04:15:23;;;;;;;2.67;1.27;;;;;;;-0.57;100.00;102159.47;2615916;36;20559;-58
2023/02/26 04:17:51;;;;;;;2.65;0.85;;;;;;;-0.55;100.00;102157.66;2614787;31;20038;-54
2023/02/26 04:20:22;;;;;;;5.53;1.10;;;;;;;-0.62;100.00;102166.63;2614490;36;20145;-56
2023/02/26 04:22:51;;;;;;;1.77;0.90;;;;;;;-0.64;100.00;102171.09;2615760;36;20590;-54
2023/02/26 04:25:19;;;;;;;1.53;0.90;;;;;;;-0.70;100.00;102174.72;2614553;36;20439;-56
2023/02/26 04:27:48;;;;;;;2.03;0.90;;;;;;;-0.63;100.00;102179.00;2614523;36;20038;-55
2023/02/26 04:30:16;;;;;;;2.92;1.00;;;;;;;-0.66;100.00;102173.75;2614641;36;20045;-57
2023/02/26 04:32:45;;;;;;;1.93;0.80;;;;;;;-0.74;100.00;102180.97;2613793;36;20265;-57
2023/02/26 04:35:13;;;;;;;3.47;0.95;;;;;;;-0.57;100.00;102178.84;2614683;36;20042;-57
2023/02/26 04:37:44;;;;;;;2.53;1.00;;;;;;;-0.67;100.00;102184.38;2615133;31;20038;-59
2023/02/26 04:40:14;;;;;;;11.38;0.82;;;;;;;-0.82;100.00;102189.06;2614163;36;20037;-54
2023/02/26 04:42:42;;;;;;;3.53;1.10;;;;;;;-0.72;100.00;102181.81;2614775;36;20031;-54
2023/02/26 04:45:11;;;;;;;4.20;0.90;;;;;;;-0.73;100.00;102188.88;2614401;36;20042;-58
2023/02/26 04:47:39;;;;;;;3.42;1.15;;;;;;;-0.72;100.00;102203.84;2614080;36;20042;-54
2023/02/26 04:50:09;;;;;;;5.22;0.93;;;;;;;-0.70;100.00;102209.09;2613494;36;20050;-54
2023/02/26 04:52:38;;;;;;;3.53;1.00;;;;;;;-0.65;100.00;102206.34;2614916;36;20038;-55
2023/02/26 04:55:10;;;;;;;4.07;0.90;;;;;;;-0.72;100.00;102211.75;2614015;36;20065;-56
2023/02/26 04:57:38;;;;;;;6.72;1.20;;;;;;;-0.78;100.00;102217.19;2613424;36;20038;-54
2023/02/26 05:00:08;;;;;;;3.70;0.98;;;;;;;-0.59;100.00;102217.69;2615614;31;20030;-57
2023/02/26 05:02:37;;;;;;;4.40;0.90;;;;;;;-0.51;100.00;102214.03;2613042;36;20030;-55
2023/02/26 05:05:06;;;;;;;3.85;0.90;;;;;;;-0.58;100.00;102223.84;2614066;36;20444;-55
2023/02/26 05:07:34;;;;;;;2.65;0.80;;;;;;;-0.67;100.00;102224.03;2613349;31;20034;-58
2023/02/26 05:10:02;;;;;;;1.75;0.70;;;;;;;-0.73;100.00;102231.16;2614451;36;20038;-56
2023/02/26 05:12:33;;;;;;;2.15;1.20;;;;;;;-0.62;100.00;102227.44;2613900;36;20042;-56
2023/02/26 05:15:02;;;;;;;3.63;0.90;;;;;;;-0.68;100.00;102240.78;2615239;36;20041;-55
2023/02/26 05:17:30;;;;;;;5.53;1.00;;;;;;;-0.66;100.00;102241.63;2614005;36;20039;-49
2023/02/26 05:19:58;;;;;;;3.47;0.88;;;;;;;-0.57;100.00;102236.16;2613714;36;20038;-56
2023/02/26 05:22:27;;;;;;;3.60;0.80;;;;;;;-0.64;100.00;102245.97;2613634;36;20694;-55
2023/02/26 05:24:55;;;;;;;5.15;0.90;;;;;;;-0.71;100.00;102245.25;2614862;36;20042;-54
2023/02/26 05:27:23;;;;;;;4.60;1.08;;;;;;;-0.62;100.00;102259.16;2613847;36;20045;-52
2023/02/26 05:29:54;;;;;;;3.13;1.10;;;;;;;-0.49;100.00;102255.38;2613645;36;20444;-55
2023/02/26 05:32:23;;;;;;;3.45;0.90;;;;;;;-0.55;100.00;102250.22;2613038;36;20037;-52
2023/02/26 05:34:51;;;;;;;6.07;0.90;;;;;;;-0.65;100.00;102259.22;2615057;36;20066;-54
2023/02/26 05:37:19;;;;;;;4.03;0.80;;;;;;;-0.80;100.00;102268.34;2612479;36;20535;-51
2023/02/26 05:39:48;;;;;;;6.55;0.98;;;;;;;-0.78;100.00;102270.06;2614245;36;20447;-54
2023/02/26 05:42:16;;;;;;;1.92;0.70;;;;;;;-0.80;100.00;102274.47;2612217;36;20039;-53
2023/02/26 05:44:45;;;;;;;1.65;0.80;;;;;;;-0.76;100.00;102268.25;2614523;36;20049;-55
2023/02/26 05:47:16;;;;;;;5.38;1.33;;;;;;;-0.84;100.00;102275.47;2614123;36;20038;-53
2023/02/26 05:49:44;;;;;;;4.95;1.25;;;;;;;-0.83;100.00;102284.25;2614738;36;20038;-55
2023/02/26 05:52:12;;;;;;;2.70;1.08;;;;;;;-0.95;100.00;102287.97;2613426;36;20416;-57
2023/02/26 05:54:41;;;;;;;2.65;1.08;;;;;;;-0.97;100.00;102289.75;2614564;31;20038;-55
2023/02/26 05:57:09;;;;;;;4.65;1.10;;;;;;;-1.00;100.00;102295.09;2614393;36;20535;-57
2023/02/26 05:59:37;;;;;;;3.78;0.93;;;;;;;-0.96;100.00;102302.94;2614252;36;20043;-56
2023/02/26 06:02:06;;;;;;;1.95;1.02;;;;;;;-0.99;100.00;102307.44;2613833;36;20126;-59
2023/02/26 06:04:37;;;;;;;5.07;1.30;;;;;;;-1.12;100.00;102315.56;2614172;36;20045;-52
2023/02/26 06:07:05;;;;;;;2.60;1.00;;;;;;;-1.12;100.00;102312.94;2615598;31;20409;-56
2023/02/26 06:09:34;;;;;;;3.80;1.00;;;;;;;-1.10;100.00;102324.34;2613233;36;20039;-60
2023/02/26 06:12:02;;;;;;;1.67;0.82;;;;;;;-1.14;100.00;102322.63;2612958;36;20042;-58
2023/02/26 06:14:31;;;;;;;4.25;0.88;;;;;;;-1.08;100.00;102330.44;2614064;36;20026;-56
2023/02/26 06:16:59;;;;;;;4.32;0.82;;;;;;;-1.15;100.00;102331.47;2614610;31;20089;-49
2023/02/26 06:19:27;;;;;;;4.55;0.90;;;;;;;-1.21;100.00;102339.47;2612520;36;20039;-53
2023/02/26 06:21:58;;;;;;;5.20;1.43;;;;;;;-1.21;100.00;102339.47;2614830;36;20923;-49
2023/02/26 06:24:27;;;;;;;3.42;1.25;;;;;;;-1.18;100.00;102343.84;2614509;31;20065;-55
2023/02/26 06:26:55;;;;;;;3.85;1.40;;;;;;;-1.08;100.00;102351.59;2614771;36;20034;-54
2023/02/26 06:29:24;;;;;;;4.15;0.98;;;;;;;-1.12;100.00;102360.50;2613830;31;20041;-53
2023/02/26 06:31:52;;;;;;;2.50;1.13;;;;;;;-1.15;100.00;102359.66;2613900;36;20523;-56
2023/02/26 06:34:21;;;;;;;6.88;1.17;;;;;;;-1.20;100.00;102350.94;2613770;32;20042;-55
2023/02/26 06:36:49;;;;;;;2.10;1.10;;;;;;;-1.11;100.00;102362.22;2613734;36;20027;-54
2023/02/26 06:39:20;;;;;;;5.93;1.30;;;;;;;-1.07;100.00;102365.69;2613791;36;20030;-55
2023/02/26 06:41:49;;;;;;;6.15;1.58;;;;;;;-1.16;100.00;102366.72;2614416;36;20045;-52
2023/02/26 06:44:17;;;;;;;3.65;1.25;;;;;;;-1.14;100.00;102372.84;2612785;36;20525;-52
2023/02/26 06:46:45;;;;;;;3.97;1.25;;;;;;;-1.07;100.00;102366.56;2612867;36;20049;-51
2023/02/26 06:49:14;;;;;;;2.65;1.17;;;;;;;-1.01;100.00;102377.94;2613334;36;20065;-52
2023/02/26 06:51:42;;;;;;;4.40;1.45;;;;;;;-0.96;100.00;102381.38;2614305;36;20041;-56
2023/02/26 06:54:10;;;;;;;2.53;1.35;;;;;;;-1.04;100.00;102388.56;2612452;31;20049;-55
2023/02/26 06:56:41;;;;;;;2.80;1.02;;;;;;;-1.08;100.00;102387.72;2614792;36;20045;-55
2023/02/26 06:59:10;;;;;;;5.47;1.92;;;;;;;-1.18;100.00;102381.69;2613625;36;20042;-54
2023/02/26 07:01:38;;;;;;;8.18;1.40;;;;;;;-1.10;100.00;102400.09;2615133;36;20039;-57
2023/02/26 07:04:07;;;;;;;6.65;1.40;;;;;;;-0.95;100.00;102404.28;2613360;36;20582;-51
2023/02/26 07:06:35;;;;;;;5.25;1.33;;;;;;;-0.97;100.00;102401.66;2613720;36;20035;-59
2023/02/26 07:09:03;;;;;;;4.95;1.10;;;;;;;-1.00;100.00;102411.38;2613315;31;20030;-57
2023/02/26 07:11:32;;;;;;;4.00;1.05;;;;;;;-0.91;100.00;102413.91;2613785;36;20060;-51
2023/02/26 07:14:03;;;;;;;5.53;1.20;;;;;;;-0.85;100.00;102413.81;2612759;36;20022;-56
2023/02/26 07:16:31;;;;;;;2.45;1.20;;;;;;;-0.79;100.00;102421.63;2614980;36;20147;-55
2023/02/26 07:18:59;;;;;;;2.63;1.10;;;;;;;-0.74;100.00;102426.84;2615205;36;20042;-52
2023/02/26 07:21:27;;;;;;;4.63;1.25;;;;;;;-0.73;100.00;102432.09;2613825;36;20038;-54
2023/02/26 07:23:56;;;;;;;4.15;1.20;;;;;;;-0.67;100.00;102435.56;2612685;36;20042;-52
2023/02/26 07:26:24;;;;;;;3.78;1.10;;;;;;;-0.80;100.00;102438.38;2615151;36;20042;-57
2023/02/26 07:28:52;;;;;;;3.67;1.20;;;;;;;-0.67;100.00;102436.44;2614615;36;20046;-55
2023/02/26 07:31:23;;;;;;;3.67;1.50;;;;;;;-0.63;100.00;102439.88;2613643;36;20050;-49
2023/02/26 07:33:52;;;;;;;3.65;1.70;;;;;;;-0.51;100.00;102441.47;2613087;36;20041;-53
2023/02/26 07:36:20;;;;;;;4.00;1.35;;;;;;;-0.46;100.00;102443.13;2614199;31;20046;-53
2023/02/26 07:38:48;;;;;;;2.58;1.20;;;;;;;-0.33;100.00;102450.88;2614551;36;20610;-55
2023/02/26 07:41:17;;;;;;;5.90;1.80;;;;;;;-0.30;100.00;102445.50;2614985;36;20034;-57
2023/02/26 07:43:45;;;;;;;5.43;0.90;;;;;;;-0.34;100.00;102446.47;2615038;36;20054;-52
2023/02/26 07:46:14;;;;;;;4.57;1.45;;;;;;;-0.27;100.00;102453.41;2614713;31;20041;-56
2023/02/26 07:48:45;;;;;;;4.53;1.15;;;;;;;-0.14;100.00;102460.22;2613522;36;20031;-55
2023/02/26 07:51:13;;;;;;;4.05;1.25;;;;;;;-0.14;100.00;102460.22;2614863;36;20041;-54
2023/02/26 07:53:42;;;;;;;4.40;1.27;;;;;;;-0.13;100.00;102464.63;2613599;36;20042;-55
2023/02/26 07:56:10;;;;;;;6.95;1.20;;;;;;;-0.07;100.00;102464.50;2611870;36;20057;-53
2023/02/26 07:58:38;;;;;;;5.07;1.17;;;;;;;-0.02;100.00;102465.28;2614401;31;20038;-54
2023/02/26 08:01:07;;;;;;;3.33;1.40;;;;;;;0.03;100.00;102464.31;2614389;36;20038;-49
2023/02/26 08:03:35;;;;;;;3.33;1.10;;;;;;;0.20;100.00;102472.81;2614086;36;20419;-56
2023/02/26 08:06:07;;;;;;;4.35;1.00;;;;;;;0.28;100.00;102473.56;2614449;36;20575;-52
2023/02/26 08:08:36;;;;;;;5.00;1.10;;;;;;;0.42;100.00;102472.41;2613148;36;20038;-56
2023/02/26 08:11:04;;;;;;;2.13;0.83;;;;;;;0.42;100.00;102477.72;2614595;31;20554;-57
2023/02/26 08:13:33;;;;;;;3.60;1.00;;;;;;;0.42;100.00;102480.34;2613543;36;20303;-54
2023/02/26 08:16:01;;;;;;;4.15;1.33;;;;;;;0.43;100.00;102476.81;2615773;31;20558;-58
2023/02/26 08:18:30;;;;;;;5.32;3.05;;;;;;;0.51;100.00;102491.63;2613554;36;20034;-57
2023/02/26 08:20:58;;;;;;;3.20;1.23;;;;;;;0.60;100.00;102493.22;2614798;36;20038;-56
2023/02/26 08:23:29;;;;;;;5.88;1.20;;;;;;;0.65;100.00;102491.34;2614527;36;20046;-57
2023/02/26 08:26:02;;;;;;;3.13;1.10;;;;;;;0.71;100.00;102498.31;2613826;36;20101;-57
2023/02/26 08:28:31;;;;;;;2.90;1.38;;;;;;;0.70;100.00;102494.75;2613512;36;20061;-54
2023/02/26 08:31:00;;;;;;;2.08;1.00;;;;;;;0.86;100.00;102482.06;2615065;36;20599;-52
2023/02/26 08:33:29;;;;;;;2.63;0.93;;;;;;;0.94;100.00;102491.63;2613474;36;20329;-53
2023/02/26 08:36:00;;;;;;;8.93;1.52;;;;;;;1.02;100.00;102490.56;2613736;36;20030;-56
2023/02/26 08:38:32;;;;;;;2.60;0.90;;;;;;;1.07;100.00;102503.72;2615101;36;20049;-53
2023/02/26 08:41:00;;;;;;;3.38;0.90;;;;;;;1.13;100.00;102500.91;2614378;36;20042;-51
2023/02/26 08:43:29;;;;;;;3.20;0.73;;;;;;;1.24;100.00;102506.00;2613637;36;20042;-55
2023/02/26 08:45:59;;;;;;;2.35;1.00;;;;;;;1.31;100.00;102512.00;2615313;36;20412;-50
2023/02/26 08:48:27;;;;;;;2.90;1.30;;;;;;;1.30;100.00;102503.19;2613996;36;20073;-56
2023/02/26 08:50:56;;;;;;;2.70;1.45;;;;;;;1.43;100.00;102513.50;2613320;36;20034;-50
2023/02/26 08:53:24;;;;;;;1.67;0.90;;;;;;;1.42;100.00;102514.44;2615841;36;20031;-56
2023/02/26 08:56:01;;;;;;;4.97;1.30;;;;;;;1.36;100.00;102523.41;2614930;39;20436;-55
2023/02/26 08:58:29;;;;;;;2.13;1.40;;;;;;;1.44;100.00;102536.47;2613618;31;20061;-54
2023/02/26 09:00:58;;;;;;;4.45;1.65;;;;;;;1.50;100.00;102541.63;2614198;31;20513;-55
2023/02/26 09:03:26;;;;;;;2.92;1.33;;;;;;;1.53;100.00;102539.81;2615212;36;20042;-55
2023/02/26 09:05:54;;;;;;;2.90;1.40;;;;;;;1.54;100.00;102545.97;2616258;36;20038;-54
2023/02/26 09:08:23;;;;;;;5.53;1.67;;;;;;;1.72;100.00;102548.19;2614271;36;20042;-56
2023/02/26 09:10:51;;;;;;;6.93;1.43;;;;;;;1.75;100.00;102550.78;2615783;31;20034;-54
2023/02/26 09:13:22;;;;;;;3.42;0.90;;;;;;;1.64;100.00;102560.78;2615347;36;20041;-55
2023/02/26 09:15:51;;;;;;;5.20;1.45;;;;;;;1.75;100.00;102566.72;2615924;36;20039;-52
2023/02/26 09:18:19;;;;;;;3.05;0.95;;;;;;;1.78;100.00;102564.88;2614889;36;20030;-55
2023/02/26 09:20:48;;;;;;;1.60;0.80;;;;;;;1.86;100.00;102562.91;2614537;36;20042;-52
2023/02/26 09:23:16;;;;;;;6.78;1.30;;;;;;;1.90;100.00;102560.16;2616201;36;20057;-55
2023/02/26 09:25:44;;;;;;;5.85;1.50;;;;;;;1.97;100.00;102566.16;2616058;31;20038;-53
2023/02/26 09:28:12;;;;;;;5.70;1.10;;;;;;;1.98;100.00;102562.59;2615612;36;20045;-58
2023/02/26 09:30:43;;;;;;;1.85;0.82;;;;;;;1.96;100.00;102568.84;2614965;36;20042;-51
2023/02/26 09:33:12;;;;;;;4.93;1.00;;;;;;;2.10;100.00;102569.38;2614790;36;20039;-55
2023/02/26 09:35:40;;;;;;;1.75;0.93;;;;;;;2.12;100.00;102572.88;2614247;36;20042;-55
2023/02/26 09:38:09;;;;;;;4.25;1.00;;;;;;;2.16;100.00;102577.19;2614277;36;20027;-55
2023/02/26 09:40:46;;;;;;;5.30;1.10;;;;;;;2.25;100.00;102576.06;2614646;31;20022;-55
2023/02/26 09:43:32;;;;;;;3.88;0.98;;;;;;;2.37;100.00;102575.78;2613398;36;20034;-55
2023/02/26 09:46:07;;;;;;;2.90;1.20;;;;;;;2.44;100.00;102580.03;2614879;36;20045;-58
2023/02/26 09:48:40;;;;;;;1.88;0.60;;;;;;;2.39;100.00;102578.38;2614648;36;20033;-52
2023/02/26 09:51:14;;;;;;;4.97;0.95;;;;;;;2.55;100.00;102585.03;2615032;36;20027;-53
2023/02/26 09:53:43;;;;;;;3.88;0.90;;;;;;;2.64;100.00;102583.91;2613737;36;20030;-55
2023/02/26 09:56:17;;;;;;;2.95;1.00;;;;;;;2.61;100.00;102584.00;2613994;36;20034;-56
2023/02/26 09:58:47;;;;;;;4.47;0.98;;;;;;;2.72;100.00;102584.56;2612651;36;20035;-58
2023/02/26 10:01:28;;;;;;;3.03;0.93;;;;;;;2.75;100.00;102589.81;2613516;36;20043;-56
2023/02/26 10:04:08;;;;;;;2.85;0.90;;;;;;;2.73;100.00;102588.97;2612717;36;20065;-52
2023/02/26 10:06:45;;;;;;;1.20;0.68;;;;;;;2.87;100.00;102593.91;2614143;31;20574;-56
2023/02/26 10:09:35;;;;;;;3.17;1.02;;;;;;;3.07;100.00;102593.31;2614440;36;20073;-58
2023/02/26 10:12:07;;;;;;;6.38;1.05;;;;;;;2.97;100.00;102597.16;2615577;36;20034;-55
2023/02/26 10:14:41;;;;;;;2.33;0.68;;;;;;;2.92;100.00;102604.41;2614666;31;20046;-53
2023/02/26 10:17:20;;;;;;;2.90;0.82;;;;;;;2.91;100.00;102613.31;2613648;36;20030;-58
2023/02/26 10:19:54;;;;;;;4.40;0.75;;;;;;;3.06;100.00;102604.91;2614147;36;20050;-52
2023/02/26 10:22:28;;;;;;;5.20;1.10;;;;;;;3.08;100.00;102605.72;2614303;36;20034;-54
2023/02/26 10:25:03;;;;;;;3.70;1.08;;;;;;;3.24;100.00;102607.91;2615002;31;20045;-50
2023/02/26 10:27:43;;;;;;;2.97;0.82;;;;;;;3.48;100.00;102604.50;2614781;36;20061;-56
2023/02/26 10:30:17;;;;;;;6.53;1.08;;;;;;;3.28;100.00;102612.22;2615465;31;20041;-58
2023/02/26 10:32:57;;;;;;;2.03;0.75;;;;;;;3.31;100.00;102605.03;2615860;36;20479;-53
2023/02/26 10:35:29;;;;;;;2.60;0.93;;;;;;;3.20;100.00;102623.09;2614639;36;20034;-54
2023/02/26 10:38:01;;;;;;;4.05;1.15;;;;;;;3.26;100.00;102614.06;2611916;36;20527;-54
2023/02/26 10:40:38;;;;;;;4.40;0.80;;;;;;;3.34;100.00;102630.66;2612898;36;20039;-56
2023/02/26 10:43:15;;;;;;;3.13;0.82;;;;;;;3.20;100.00;102630.22;2615196;36;20401;-50
2023/02/26 10:45:56;;;;;;;2.90;0.73;;;;;;;3.25;100.00;102637.13;2614505;36;20027;-49
2023/02/26 10:48:48;;;;;;;2.17;0.70;;;;;;;3.44;100.00;102628.63;2614518;31;20030;-55
2023/02/26 10:51:20;;;;;;;1.38;0.68;;;;;;;3.40;100.00;102638.50;2615426;36;20030;-51
2023/02/26 10:53:54;;;;;;;1.75;0.63;;;;;;;3.32;100.00;102640.50;2613701;36;20035;-51
2023/02/26 10:56:27;;;;;;;1.23;0.70;;;;;;;3.43;100.00;102638.41;2615445;36;20046;-56
2023/02/26 10:58:56;;;;;;;2.70;1.00;;;;;;;3.37;100.00;102641.22;2615132;36;20030;-56
2023/02/26 11:01:26;;;;;;;3.40;1.10;;;;;;;3.47;100.00;102650.69;2615447;36;20133;-59
2023/02/26 11:04:02;;;;;;;2.03;0.80;;;;;;;3.49;100.00;102638.22;2614933;36;20038;-58
2023/02/26 11:06:33;;;;;;;1.50;0.73;;;;;;;3.57;100.00;102635.31;2613867;36;20034;-56
2023/02/26 11:09:02;;;;;;;1.40;0.70;;;;;;;3.49;100.00;102653.31;2611930;36;20038;-54
2023/02/26 11:11:41;;;;;;;0.80;0.60;;;;;;;3.46;100.00;102653.38;2613924;36;20030;-54
2023/02/26 11:14:10;;;;;;;2.15;1.52;;;;;;;3.65;100.00;102648.38;2610281;36;20038;-55
2023/02/26 11:16:44;;;;;;;1.13;0.90;;;;;;;3.77;100.00;102647.13;2612896;36;20030;-59
2023/02/26 11:19:16;;;;;;;3.55;1.02;;;;;;;3.94;100.00;102641.28;2614644;36;20041;-53
2023/02/26 11:21:48;;;;;;;1.52;0.80;;;;;;;3.80;100.00;102647.91;2612439;36;20054;-55
2023/02/26 11:24:23;;;;;;;3.60;1.25;;;;;;;3.93;100.00;102652.84;2614758;36;20444;-58
2023/02/26 11:26:52;;;;;;;1.85;1.05;;;;;;;3.93;100.00;102642.19;2615278;36;20404;-52
2023/02/26 11:29:23;;;;;;;1.23;0.82;;;;;;;4.01;100.00;102645.50;2614493;36;20122;-53
2023/02/26 11:31:54;;;;;;;2.25;0.68;;;;;;;3.83;100.00;102647.81;2612078;36;20034;-56
2023/02/26 11:34:27;;;;;;;3.83;0.80;;;;;;;3.76;100.00;102643.59;2613965;36;20064;-53
2023/02/26 11:36:59;;;;;;;1.52;0.80;;;;;;;3.82;100.00;102654.06;2612196;36;20034;-55
2023/02/26 11:39:30;;;;;;;2.92;1.00;;;;;;;3.81;100.00;102657.66;2611697;36;20038;-55
2023/02/26 11:42:01;;;;;;;2.97;0.90;;;;;;;4.01;100.00;102645.50;2613001;36;20050;-52